sensor_id;sensor_type;location;lat;lon;timestamp;P1;durP1;ratioP1;P2;durP2;ratioP2
83630;SDS011;73593;52.134;5.426;2024-01-25T00:01:45;17.08;;;2.92;;
83630;SDS011;73593;52.134;5.426;2024-01-25T00:04:11;16.23;;;3.78;;
83630;SDS011;73593;52.134;5.426;2024-01-25T00:06:40;16.70;;;3.40;;
83630;SDS011;73593;52.134;5.426;2024-01-25T00:09:07;23.60;;;4.28;;
83630;SDS011;73593;52.134;5.426;2024-01-25T00:11:34;22.70;;;3.25;;
83630;SDS011;73593;52.134;5.426;2024-01-25T00:14:01;16.73;;;2.88;;
83630;SDS011;73593;52.134;5.426;2024-01-25T00:16:31;12.75;;;3.22;;
83630;SDS011;73593;52.134;5.426;2024-01-25T00:19:03;18.40;;;3.72;;
83630;SDS011;73593;52.134;5.426;2024-01-25T00:21:32;14.95;;;3.22;;
83630;SDS011;73593;52.134;5.426;2024-01-25T00:24:01;17.67;;;3.28;;
83630;SDS011;73593;52.134;5.426;2024-01-25T00:26:30;20.08;;;3.55;;
83630;SDS011;73593;52.134;5.426;2024-01-25T00:28:57;19.50;;;3.13;;
83630;SDS011;73593;52.134;5.426;2024-01-25T00:31:26;19.05;;;2.53;;
83630;SDS011;73593;52.134;5.426;2024-01-25T00:34:00;14.20;;;3.08;;
83630;SDS011;73593;52.134;5.426;2024-01-25T00:36:27;20.98;;;3.05;;
83630;SDS011;73593;52.134;5.426;2024-01-25T00:38:57;21.75;;;3.30;;
83630;SDS011;73593;52.134;5.426;2024-01-25T00:41:24;21.38;;;3.60;;
83630;SDS011;73593;52.134;5.426;2024-01-25T00:43:58;13.10;;;2.92;;
83630;SDS011;73593;52.134;5.426;2024-01-25T00:46:27;17.80;;;2.95;;
83630;SDS011;73593;52.134;5.426;2024-01-25T00:48:58;15.82;;;3.60;;
83630;SDS011;73593;52.134;5.426;2024-01-25T00:51:27;13.25;;;3.28;;
83630;SDS011;73593;52.134;5.426;2024-01-25T00:54:00;14.73;;;3.17;;
83630;SDS011;73593;52.134;5.426;2024-01-25T00:56:27;20.65;;;3.33;;
83630;SDS011;73593;52.134;5.426;2024-01-25T00:58:56;21.30;;;3.10;;
83630;SDS011;73593;52.134;5.426;2024-01-25T01:01:23;19.48;;;3.58;;
83630;SDS011;73593;52.134;5.426;2024-01-25T01:06:19;18.58;;;2.92;;
83630;SDS011;73593;52.134;5.426;2024-01-25T01:08:49;14.82;;;2.97;;
83630;SDS011;73593;52.134;5.426;2024-01-25T01:11:19;16.83;;;2.80;;
83630;SDS011;73593;52.134;5.426;2024-01-25T01:13:48;15.88;;;3.70;;
83630;SDS011;73593;52.134;5.426;2024-01-25T01:16:15;20.17;;;2.95;;
83630;SDS011;73593;52.134;5.426;2024-01-25T01:18:42;15.30;;;2.75;;
83630;SDS011;73593;52.134;5.426;2024-01-25T01:21:14;14.95;;;2.55;;
83630;SDS011;73593;52.134;5.426;2024-01-25T01:23:43;20.83;;;2.80;;
83630;SDS011;73593;52.134;5.426;2024-01-25T01:26:09;26.70;;;4.00;;
83630;SDS011;73593;52.134;5.426;2024-01-25T01:28:37;17.80;;;3.00;;
83630;SDS011;73593;52.134;5.426;2024-01-25T01:31:04;23.50;;;3.22;;
83630;SDS011;73593;52.134;5.426;2024-01-25T01:33:39;14.93;;;3.15;;
83630;SDS011;73593;52.134;5.426;2024-01-25T01:36:06;17.55;;;4.05;;
83630;SDS011;73593;52.134;5.426;2024-01-25T01:38:33;12.13;;;2.60;;
83630;SDS011;73593;52.134;5.426;2024-01-25T01:40:59;13.73;;;2.50;;
83630;SDS011;73593;52.134;5.426;2024-01-25T01:43:26;14.32;;;3.40;;
83630;SDS011;73593;52.134;5.426;2024-01-25T01:45:53;17.67;;;2.90;;
83630;SDS011;73593;52.134;5.426;2024-01-25T01:48:36;19.65;;;3.65;;
83630;SDS011;73593;52.134;5.426;2024-01-25T01:51:05;16.60;;;3.72;;
83630;SDS011;73593;52.134;5.426;2024-01-25T01:53:33;16.50;;;2.97;;
83630;SDS011;73593;52.134;5.426;2024-01-25T01:56:01;16.02;;;3.35;;
83630;SDS011;73593;52.134;5.426;2024-01-25T01:58:27;14.95;;;4.07;;
83630;SDS011;73593;52.134;5.426;2024-01-25T02:00:56;14.85;;;3.90;;
83630;SDS011;73593;52.134;5.426;2024-01-25T02:03:26;15.75;;;3.30;;
83630;SDS011;73593;52.134;5.426;2024-01-25T02:05:53;16.85;;;3.80;;
83630;SDS011;73593;52.134;5.426;2024-01-25T02:08:20;10.50;;;2.70;;
83630;SDS011;73593;52.134;5.426;2024-01-25T02:10:47;13.00;;;3.20;;
83630;SDS011;73593;52.134;5.426;2024-01-25T02:13:14;20.80;;;3.63;;
83630;SDS011;73593;52.134;5.426;2024-01-25T02:15:45;11.85;;;3.28;;
83630;SDS011;73593;52.134;5.426;2024-01-25T02:18:15;15.02;;;3.55;;
83630;SDS011;73593;52.134;5.426;2024-01-25T02:20:42;14.15;;;3.10;;
83630;SDS011;73593;52.134;5.426;2024-01-25T02:23:09;20.00;;;4.35;;
83630;SDS011;73593;52.134;5.426;2024-01-25T02:25:35;19.58;;;3.53;;
83630;SDS011;73593;52.134;5.426;2024-01-25T02:28:03;16.90;;;3.40;;
83630;SDS011;73593;52.134;5.426;2024-01-25T02:30:32;16.98;;;3.47;;
83630;SDS011;73593;52.134;5.426;2024-01-25T02:32:59;15.40;;;4.13;;
83630;SDS011;73593;52.134;5.426;2024-01-25T02:35:26;17.88;;;4.15;;
83630;SDS011;73593;52.134;5.426;2024-01-25T02:37:53;15.60;;;3.20;;
83630;SDS011;73593;52.134;5.426;2024-01-25T02:40:20;14.48;;;3.08;;
83630;SDS011;73593;52.134;5.426;2024-01-25T02:42:46;14.38;;;2.90;;
83630;SDS011;73593;52.134;5.426;2024-01-25T02:45:16;15.63;;;3.35;;
83630;SDS011;73593;52.134;5.426;2024-01-25T02:47:43;12.18;;;2.60;;
83630;SDS011;73593;52.134;5.426;2024-01-25T02:50:10;13.98;;;2.75;;
83630;SDS011;73593;52.134;5.426;2024-01-25T02:52:36;17.45;;;3.05;;
83630;SDS011;73593;52.134;5.426;2024-01-25T02:55:03;14.13;;;2.90;;
83630;SDS011;73593;52.134;5.426;2024-01-25T02:57:32;14.55;;;2.67;;
83630;SDS011;73593;52.134;5.426;2024-01-25T03:00:00;15.40;;;3.53;;
83630;SDS011;73593;52.134;5.426;2024-01-25T03:02:27;16.40;;;2.50;;
83630;SDS011;73593;52.134;5.426;2024-01-25T03:04:56;16.35;;;4.18;;
83630;SDS011;73593;52.134;5.426;2024-01-25T03:07:25;21.10;;;3.85;;
83630;SDS011;73593;52.134;5.426;2024-01-25T03:09:54;9.23;;;3.30;;
83630;SDS011;73593;52.134;5.426;2024-01-25T03:12:20;17.20;;;3.13;;
83630;SDS011;73593;52.134;5.426;2024-01-25T03:14:49;14.27;;;2.55;;
83630;SDS011;73593;52.134;5.426;2024-01-25T03:17:18;13.18;;;3.20;;
83630;SDS011;73593;52.134;5.426;2024-01-25T03:19:45;12.77;;;2.85;;
83630;SDS011;73593;52.134;5.426;2024-01-25T03:22:14;14.32;;;2.90;;
83630;SDS011;73593;52.134;5.426;2024-01-25T03:24:43;15.57;;;3.40;;
83630;SDS011;73593;52.134;5.426;2024-01-25T03:27:13;20.85;;;3.38;;
83630;SDS011;73593;52.134;5.426;2024-01-25T03:29:42;11.65;;;2.90;;
83630;SDS011;73593;52.134;5.426;2024-01-25T03:32:12;9.98;;;3.03;;
83630;SDS011;73593;52.134;5.426;2024-01-25T03:34:41;14.75;;;3.08;;
83630;SDS011;73593;52.134;5.426;2024-01-25T03:37:08;18.90;;;3.28;;
83630;SDS011;73593;52.134;5.426;2024-01-25T03:39:37;24.85;;;4.00;;
83630;SDS011;73593;52.134;5.426;2024-01-25T03:42:04;23.55;;;3.78;;
83630;SDS011;73593;52.134;5.426;2024-01-25T03:44:30;17.17;;;2.88;;
83630;SDS011;73593;52.134;5.426;2024-01-25T03:46:58;14.65;;;3.22;;
83630;SDS011;73593;52.134;5.426;2024-01-25T03:49:25;14.40;;;3.53;;
83630;SDS011;73593;52.134;5.426;2024-01-25T03:51:52;19.48;;;3.92;;
83630;SDS011;73593;52.134;5.426;2024-01-25T03:54:18;9.15;;;2.70;;
83630;SDS011;73593;52.134;5.426;2024-01-25T03:56:45;13.48;;;3.28;;
83630;SDS011;73593;52.134;5.426;2024-01-25T03:59:12;16.05;;;3.13;;
83630;SDS011;73593;52.134;5.426;2024-01-25T04:01:44;18.85;;;3.28;;
83630;SDS011;73593;52.134;5.426;2024-01-25T04:04:11;17.92;;;3.25;;
83630;SDS011;73593;52.134;5.426;2024-01-25T04:09:17;21.92;;;3.00;;
83630;SDS011;73593;52.134;5.426;2024-01-25T04:11:46;12.68;;;2.35;;
83630;SDS011;73593;52.134;5.426;2024-01-25T04:14:16;12.18;;;3.15;;
83630;SDS011;73593;52.134;5.426;2024-01-25T04:16:42;21.35;;;3.40;;
83630;SDS011;73593;52.134;5.426;2024-01-25T04:19:09;14.05;;;2.80;;
83630;SDS011;73593;52.134;5.426;2024-01-25T04:21:39;16.20;;;2.50;;
83630;SDS011;73593;52.134;5.426;2024-01-25T04:24:08;18.98;;;3.20;;
83630;SDS011;73593;52.134;5.426;2024-01-25T04:26:38;19.13;;;3.75;;
83630;SDS011;73593;52.134;5.426;2024-01-25T04:29:07;9.57;;;2.20;;
83630;SDS011;73593;52.134;5.426;2024-01-25T04:31:33;15.13;;;3.20;;
83630;SDS011;73593;52.134;5.426;2024-01-25T04:34:03;12.40;;;3.58;;
83630;SDS011;73593;52.134;5.426;2024-01-25T04:36:30;17.90;;;3.20;;
83630;SDS011;73593;52.134;5.426;2024-01-25T04:38:57;10.57;;;3.10;;
83630;SDS011;73593;52.134;5.426;2024-01-25T04:41:23;21.00;;;3.47;;
83630;SDS011;73593;52.134;5.426;2024-01-25T04:43:50;14.52;;;3.03;;
83630;SDS011;73593;52.134;5.426;2024-01-25T04:46:16;17.02;;;3.33;;
83630;SDS011;73593;52.134;5.426;2024-01-25T04:48:45;15.20;;;3.05;;
83630;SDS011;73593;52.134;5.426;2024-01-25T04:51:16;15.32;;;3.50;;
83630;SDS011;73593;52.134;5.426;2024-01-25T04:53:43;16.60;;;3.83;;
83630;SDS011;73593;52.134;5.426;2024-01-25T04:56:10;12.63;;;3.60;;
83630;SDS011;73593;52.134;5.426;2024-01-25T04:58:36;22.83;;;3.85;;
83630;SDS011;73593;52.134;5.426;2024-01-25T05:01:03;14.93;;;3.10;;
83630;SDS011;73593;52.134;5.426;2024-01-25T05:03:33;16.40;;;4.00;;
83630;SDS011;73593;52.134;5.426;2024-01-25T05:06:00;16.08;;;3.03;;
83630;SDS011;73593;52.134;5.426;2024-01-25T05:08:26;14.30;;;3.60;;
83630;SDS011;73593;52.134;5.426;2024-01-25T05:10:53;12.25;;;3.20;;
83630;SDS011;73593;52.134;5.426;2024-01-25T05:13:23;19.75;;;3.15;;
83630;SDS011;73593;52.134;5.426;2024-01-25T05:15:52;18.77;;;3.85;;
83630;SDS011;73593;52.134;5.426;2024-01-25T05:18:19;14.38;;;3.13;;
83630;SDS011;73593;52.134;5.426;2024-01-25T05:20:45;14.27;;;3.00;;
83630;SDS011;73593;52.134;5.426;2024-01-25T05:23:12;14.57;;;2.63;;
83630;SDS011;73593;52.134;5.426;2024-01-25T05:25:42;10.05;;;3.15;;
83630;SDS011;73593;52.134;5.426;2024-01-25T05:28:08;16.42;;;2.83;;
83630;SDS011;73593;52.134;5.426;2024-01-25T05:30:35;12.55;;;3.28;;
83630;SDS011;73593;52.134;5.426;2024-01-25T05:33:01;11.68;;;3.03;;
83630;SDS011;73593;52.134;5.426;2024-01-25T05:35:29;17.58;;;3.53;;
83630;SDS011;73593;52.134;5.426;2024-01-25T05:38:03;10.82;;;2.83;;
83630;SDS011;73593;52.134;5.426;2024-01-25T05:40:35;19.50;;;4.00;;
83630;SDS011;73593;52.134;5.426;2024-01-25T05:43:04;12.27;;;3.70;;
83630;SDS011;73593;52.134;5.426;2024-01-25T05:45:30;14.52;;;3.15;;
83630;SDS011;73593;52.134;5.426;2024-01-25T05:47:57;17.45;;;3.33;;
83630;SDS011;73593;52.134;5.426;2024-01-25T05:50:26;10.05;;;2.95;;
83630;SDS011;73593;52.134;5.426;2024-01-25T05:52:53;10.35;;;2.45;;
83630;SDS011;73593;52.134;5.426;2024-01-25T05:55:20;17.63;;;3.45;;
83630;SDS011;73593;52.134;5.426;2024-01-25T05:57:46;14.73;;;2.45;;
83630;SDS011;73593;52.134;5.426;2024-01-25T06:00:13;18.30;;;3.42;;
83630;SDS011;73593;52.134;5.426;2024-01-25T06:02:45;12.73;;;2.92;;
83630;SDS011;73593;52.134;5.426;2024-01-25T06:05:12;21.45;;;3.70;;
83630;SDS011;73593;52.134;5.426;2024-01-25T06:07:46;17.85;;;4.20;;
83630;SDS011;73593;52.134;5.426;2024-01-25T06:10:15;12.77;;;3.33;;
83630;SDS011;73593;52.134;5.426;2024-01-25T06:12:42;19.75;;;3.33;;
83630;SDS011;73593;52.134;5.426;2024-01-25T06:15:11;15.25;;;2.80;;
83630;SDS011;73593;52.134;5.426;2024-01-25T06:17:37;25.08;;;3.33;;
83630;SDS011;73593;52.134;5.426;2024-01-25T06:20:04;14.35;;;3.28;;
83630;SDS011;73593;52.134;5.426;2024-01-25T06:22:32;13.82;;;2.85;;
83630;SDS011;73593;52.134;5.426;2024-01-25T06:25:01;16.25;;;3.90;;
83630;SDS011;73593;52.134;5.426;2024-01-25T06:27:32;12.63;;;3.08;;
83630;SDS011;73593;52.134;5.426;2024-01-25T06:29:59;15.52;;;3.25;;
83630;SDS011;73593;52.134;5.426;2024-01-25T06:32:28;13.05;;;3.17;;
83630;SDS011;73593;52.134;5.426;2024-01-25T06:34:55;14.23;;;3.17;;
83630;SDS011;73593;52.134;5.426;2024-01-25T06:37:24;9.82;;;2.88;;
83630;SDS011;73593;52.134;5.426;2024-01-25T06:39:51;16.73;;;3.28;;
83630;SDS011;73593;52.134;5.426;2024-01-25T06:42:17;11.00;;;2.67;;
83630;SDS011;73593;52.134;5.426;2024-01-25T06:44:47;14.27;;;3.92;;
83630;SDS011;73593;52.134;5.426;2024-01-25T06:47:16;10.93;;;3.00;;
83630;SDS011;73593;52.134;5.426;2024-01-25T06:49:48;18.55;;;3.42;;
83630;SDS011;73593;52.134;5.426;2024-01-25T06:52:18;13.20;;;3.33;;
83630;SDS011;73593;52.134;5.426;2024-01-25T06:54:47;22.02;;;3.83;;
83630;SDS011;73593;52.134;5.426;2024-01-25T06:57:16;15.10;;;3.33;;
83630;SDS011;73593;52.134;5.426;2024-01-25T06:59:43;18.27;;;4.32;;
83630;SDS011;73593;52.134;5.426;2024-01-25T07:02:11;15.80;;;3.90;;
83630;SDS011;73593;52.134;5.426;2024-01-25T07:04:40;19.92;;;4.03;;
83630;SDS011;73593;52.134;5.426;2024-01-25T07:07:08;13.82;;;4.20;;
83630;SDS011;73593;52.134;5.426;2024-01-25T07:09:35;14.02;;;3.67;;
83630;SDS011;73593;52.134;5.426;2024-01-25T07:12:03;16.45;;;4.38;;
83630;SDS011;73593;52.134;5.426;2024-01-25T07:14:30;16.00;;;4.70;;
83630;SDS011;73593;52.134;5.426;2024-01-25T07:17:00;14.15;;;3.67;;
83630;SDS011;73593;52.134;5.426;2024-01-25T07:19:29;17.70;;;3.88;;
83630;SDS011;73593;52.134;5.426;2024-01-25T07:21:56;15.30;;;3.67;;
83630;SDS011;73593;52.134;5.426;2024-01-25T07:24:22;18.60;;;3.75;;
83630;SDS011;73593;52.134;5.426;2024-01-25T07:26:49;20.23;;;4.25;;
83630;SDS011;73593;52.134;5.426;2024-01-25T07:29:21;14.00;;;4.40;;
83630;SDS011;73593;52.134;5.426;2024-01-25T07:31:51;15.95;;;4.82;;
83630;SDS011;73593;52.134;5.426;2024-01-25T07:34:21;31.90;;;8.38;;
83630;SDS011;73593;52.134;5.426;2024-01-25T07:36:48;19.25;;;6.20;;
83630;SDS011;73593;52.134;5.426;2024-01-25T07:39:18;23.50;;;6.57;;
83630;SDS011;73593;52.134;5.426;2024-01-25T07:41:46;11.55;;;3.53;;
83630;SDS011;73593;52.134;5.426;2024-01-25T07:44:13;15.02;;;4.82;;
83630;SDS011;73593;52.134;5.426;2024-01-25T07:46:40;11.20;;;3.72;;
83630;SDS011;73593;52.134;5.426;2024-01-25T07:49:09;13.60;;;4.82;;
83630;SDS011;73593;52.134;5.426;2024-01-25T07:51:41;18.65;;;4.30;;
83630;SDS011;73593;52.134;5.426;2024-01-25T07:54:09;19.38;;;5.20;;
83630;SDS011;73593;52.134;5.426;2024-01-25T07:56:36;17.17;;;5.43;;
83630;SDS011;73593;52.134;5.426;2024-01-25T07:59:02;23.38;;;5.35;;
83630;SDS011;73593;52.134;5.426;2024-01-25T08:01:32;22.55;;;4.72;;
83630;SDS011;73593;52.134;5.426;2024-01-25T08:03:59;16.30;;;4.13;;
83630;SDS011;73593;52.134;5.426;2024-01-25T08:06:26;15.98;;;4.15;;
83630;SDS011;73593;52.134;5.426;2024-01-25T08:08:58;15.18;;;4.40;;
83630;SDS011;73593;52.134;5.426;2024-01-25T08:11:27;19.45;;;5.05;;
83630;SDS011;73593;52.134;5.426;2024-01-25T08:13:56;17.52;;;4.30;;
83630;SDS011;73593;52.134;5.426;2024-01-25T08:16:30;16.08;;;4.10;;
83630;SDS011;73593;52.134;5.426;2024-01-25T08:18:56;25.45;;;6.88;;
83630;SDS011;73593;52.134;5.426;2024-01-25T08:21:28;22.70;;;6.43;;
83630;SDS011;73593;52.134;5.426;2024-01-25T08:23:57;27.92;;;8.40;;
83630;SDS011;73593;52.134;5.426;2024-01-25T08:26:24;28.23;;;7.57;;
83630;SDS011;73593;52.134;5.426;2024-01-25T08:28:54;39.45;;;16.65;;
83630;SDS011;73593;52.134;5.426;2024-01-25T08:31:23;55.90;;;21.38;;
83630;SDS011;73593;52.134;5.426;2024-01-25T08:33:50;31.85;;;9.65;;
83630;SDS011;73593;52.134;5.426;2024-01-25T08:36:17;21.23;;;6.65;;
83630;SDS011;73593;52.134;5.426;2024-01-25T08:38:45;20.27;;;6.88;;
83630;SDS011;73593;52.134;5.426;2024-01-25T08:41:14;20.13;;;6.43;;
83630;SDS011;73593;52.134;5.426;2024-01-25T08:43:42;21.80;;;6.07;;
83630;SDS011;73593;52.134;5.426;2024-01-25T08:46:12;23.63;;;7.80;;
83630;SDS011;73593;52.134;5.426;2024-01-25T08:48:43;18.00;;;5.25;;
83630;SDS011;73593;52.134;5.426;2024-01-25T08:51:10;25.30;;;5.85;;
83630;SDS011;73593;52.134;5.426;2024-01-25T08:53:39;18.88;;;5.50;;
83630;SDS011;73593;52.134;5.426;2024-01-25T08:56:06;18.55;;;5.07;;
83630;SDS011;73593;52.134;5.426;2024-01-25T08:58:32;22.08;;;5.20;;
83630;SDS011;73593;52.134;5.426;2024-01-25T09:01:07;18.88;;;4.13;;
83630;SDS011;73593;52.134;5.426;2024-01-25T09:03:34;17.10;;;5.55;;
83630;SDS011;73593;52.134;5.426;2024-01-25T09:06:01;15.25;;;4.13;;
83630;SDS011;73593;52.134;5.426;2024-01-25T09:08:34;18.83;;;4.43;;
83630;SDS011;73593;52.134;5.426;2024-01-25T09:11:01;15.25;;;4.15;;
83630;SDS011;73593;52.134;5.426;2024-01-25T09:13:27;23.15;;;4.65;;
83630;SDS011;73593;52.134;5.426;2024-01-25T09:15:54;15.85;;;3.80;;
83630;SDS011;73593;52.134;5.426;2024-01-25T09:18:26;16.92;;;3.63;;
83630;SDS011;73593;52.134;5.426;2024-01-25T09:20:53;17.33;;;3.97;;
83630;SDS011;73593;52.134;5.426;2024-01-25T09:23:19;16.65;;;3.30;;
83630;SDS011;73593;52.134;5.426;2024-01-25T09:25:46;15.60;;;4.70;;
83630;SDS011;73593;52.134;5.426;2024-01-25T09:28:13;19.85;;;3.85;;
83630;SDS011;73593;52.134;5.426;2024-01-25T09:33:13;17.35;;;3.88;;
83630;SDS011;73593;52.134;5.426;2024-01-25T09:35:45;14.90;;;3.25;;
83630;SDS011;73593;52.134;5.426;2024-01-25T09:38:18;17.63;;;4.60;;
83630;SDS011;73593;52.134;5.426;2024-01-25T09:40:45;15.73;;;4.80;;
83630;SDS011;73593;52.134;5.426;2024-01-25T09:43:12;21.33;;;4.95;;
83630;SDS011;73593;52.134;5.426;2024-01-25T09:45:41;19.60;;;5.00;;
83630;SDS011;73593;52.134;5.426;2024-01-25T09:48:12;16.80;;;4.47;;
83630;SDS011;73593;52.134;5.426;2024-01-25T09:50:42;18.55;;;3.80;;
83630;SDS011;73593;52.134;5.426;2024-01-25T09:53:14;16.85;;;3.95;;
83630;SDS011;73593;52.134;5.426;2024-01-25T09:55:55;15.23;;;4.30;;
83630;SDS011;73593;52.134;5.426;2024-01-25T09:58:30;18.15;;;3.85;;
83630;SDS011;73593;52.134;5.426;2024-01-25T10:01:09;25.58;;;4.35;;
83630;SDS011;73593;52.134;5.426;2024-01-25T10:03:42;12.15;;;3.83;;
83630;SDS011;73593;52.134;5.426;2024-01-25T10:06:13;20.00;;;4.93;;
83630;SDS011;73593;52.134;5.426;2024-01-25T10:08:43;12.82;;;3.92;;
83630;SDS011;73593;52.134;5.426;2024-01-25T10:11:13;17.95;;;4.53;;
83630;SDS011;73593;52.134;5.426;2024-01-25T10:13:44;20.17;;;4.32;;
83630;SDS011;73593;52.134;5.426;2024-01-25T10:16:14;18.70;;;3.42;;
83630;SDS011;73593;52.134;5.426;2024-01-25T10:18:45;24.08;;;5.20;;
83630;SDS011;73593;52.134;5.426;2024-01-25T10:21:14;21.30;;;5.10;;
83630;SDS011;73593;52.134;5.426;2024-01-25T10:23:45;22.95;;;5.63;;
83630;SDS011;73593;52.134;5.426;2024-01-25T10:26:16;17.33;;;4.20;;
83630;SDS011;73593;52.134;5.426;2024-01-25T10:28:52;17.42;;;3.45;;
83630;SDS011;73593;52.134;5.426;2024-01-25T10:31:27;15.43;;;4.68;;
83630;SDS011;73593;52.134;5.426;2024-01-25T10:33:58;16.58;;;3.67;;
83630;SDS011;73593;52.134;5.426;2024-01-25T10:36:26;19.58;;;4.47;;
83630;SDS011;73593;52.134;5.426;2024-01-25T10:38:54;19.55;;;4.47;;
83630;SDS011;73593;52.134;5.426;2024-01-25T10:41:24;16.08;;;3.90;;
83630;SDS011;73593;52.134;5.426;2024-01-25T10:43:54;20.20;;;4.60;;
83630;SDS011;73593;52.134;5.426;2024-01-25T10:46:21;19.63;;;4.50;;
83630;SDS011;73593;52.134;5.426;2024-01-25T10:48:52;17.10;;;3.63;;
83630;SDS011;73593;52.134;5.426;2024-01-25T10:51:23;19.15;;;4.25;;
83630;SDS011;73593;52.134;5.426;2024-01-25T10:53:51;23.65;;;4.90;;
83630;SDS011;73593;52.134;5.426;2024-01-25T10:56:19;17.23;;;4.10;;
83630;SDS011;73593;52.134;5.426;2024-01-25T10:58:48;22.83;;;4.45;;
83630;SDS011;73593;52.134;5.426;2024-01-25T11:01:16;15.73;;;4.03;;
83630;SDS011;73593;52.134;5.426;2024-01-25T11:03:47;18.40;;;4.47;;
83630;SDS011;73593;52.134;5.426;2024-01-25T11:06:14;24.30;;;4.88;;
83630;SDS011;73593;52.134;5.426;2024-01-25T11:08:44;18.52;;;4.90;;
83630;SDS011;73593;52.134;5.426;2024-01-25T11:11:14;19.55;;;4.72;;
83630;SDS011;73593;52.134;5.426;2024-01-25T11:13:41;18.75;;;4.35;;
83630;SDS011;73593;52.134;5.426;2024-01-25T11:16:14;15.35;;;3.67;;
83630;SDS011;73593;52.134;5.426;2024-01-25T11:18:50;14.10;;;4.07;;
83630;SDS011;73593;52.134;5.426;2024-01-25T11:24:02;16.45;;;3.92;;
83630;SDS011;73593;52.134;5.426;2024-01-25T11:26:31;21.23;;;5.07;;
83630;SDS011;73593;52.134;5.426;2024-01-25T11:28:59;14.57;;;3.88;;
83630;SDS011;73593;52.134;5.426;2024-01-25T11:31:28;18.73;;;3.78;;
83630;SDS011;73593;52.134;5.426;2024-01-25T11:33:59;21.38;;;4.47;;
83630;SDS011;73593;52.134;5.426;2024-01-25T11:36:27;26.00;;;4.82;;
83630;SDS011;73593;52.134;5.426;2024-01-25T11:39:00;18.80;;;3.85;;
83630;SDS011;73593;52.134;5.426;2024-01-25T11:41:30;19.00;;;4.53;;
83630;SDS011;73593;52.134;5.426;2024-01-25T11:43:59;13.82;;;4.85;;
83630;SDS011;73593;52.134;5.426;2024-01-25T11:46:30;16.30;;;4.53;;
83630;SDS011;73593;52.134;5.426;2024-01-25T11:49:03;19.30;;;4.97;;
83630;SDS011;73593;52.134;5.426;2024-01-25T11:51:33;15.80;;;4.03;;
83630;SDS011;73593;52.134;5.426;2024-01-25T11:54:02;19.27;;;4.35;;
83630;SDS011;73593;52.134;5.426;2024-01-25T11:56:34;18.27;;;4.70;;
83630;SDS011;73593;52.134;5.426;2024-01-25T11:59:08;21.60;;;5.70;;
83630;SDS011;73593;52.134;5.426;2024-01-25T12:01:37;18.88;;;4.60;;
83630;SDS011;73593;52.134;5.426;2024-01-25T12:04:10;14.77;;;4.85;;
83630;SDS011;73593;52.134;5.426;2024-01-25T12:06:40;17.15;;;5.22;;
83630;SDS011;73593;52.134;5.426;2024-01-25T12:09:10;20.15;;;4.65;;
83630;SDS011;73593;52.134;5.426;2024-01-25T12:11:40;22.88;;;5.15;;
83630;SDS011;73593;52.134;5.426;2024-01-25T12:14:09;20.58;;;4.90;;
83630;SDS011;73593;52.134;5.426;2024-01-25T12:16:39;20.83;;;5.63;;
83630;SDS011;73593;52.134;5.426;2024-01-25T12:19:10;14.85;;;4.72;;
83630;SDS011;73593;52.134;5.426;2024-01-25T12:21:39;18.23;;;4.85;;
83630;SDS011;73593;52.134;5.426;2024-01-25T12:24:15;16.95;;;4.90;;
83630;SDS011;73593;52.134;5.426;2024-01-25T12:26:44;18.40;;;5.38;;
83630;SDS011;73593;52.134;5.426;2024-01-25T12:29:18;23.63;;;5.28;;
83630;SDS011;73593;52.134;5.426;2024-01-25T12:31:44;18.75;;;5.60;;
83630;SDS011;73593;52.134;5.426;2024-01-25T12:34:14;20.75;;;5.70;;
83630;SDS011;73593;52.134;5.426;2024-01-25T12:36:42;19.15;;;5.47;;
83630;SDS011;73593;52.134;5.426;2024-01-25T12:39:14;20.52;;;4.82;;
83630;SDS011;73593;52.134;5.426;2024-01-25T12:41:45;22.55;;;5.72;;
83630;SDS011;73593;52.134;5.426;2024-01-25T12:44:12;17.10;;;5.47;;
83630;SDS011;73593;52.134;5.426;2024-01-25T12:46:41;17.27;;;5.72;;
83630;SDS011;73593;52.134;5.426;2024-01-25T12:49:10;16.58;;;5.38;;
83630;SDS011;73593;52.134;5.426;2024-01-25T12:51:37;23.27;;;5.72;;
83630;SDS011;73593;52.134;5.426;2024-01-25T12:54:06;23.63;;;6.00;;
83630;SDS011;73593;52.134;5.426;2024-01-25T12:56:36;18.20;;;5.90;;
83630;SDS011;73593;52.134;5.426;2024-01-25T12:59:05;25.52;;;5.35;;
83630;SDS011;73593;52.134;5.426;2024-01-25T13:01:32;26.23;;;6.40;;
83630;SDS011;73593;52.134;5.426;2024-01-25T13:04:00;18.38;;;5.32;;
83630;SDS011;73593;52.134;5.426;2024-01-25T13:06:27;19.73;;;4.78;;
83630;SDS011;73593;52.134;5.426;2024-01-25T13:08:53;19.10;;;5.35;;
83630;SDS011;73593;52.134;5.426;2024-01-25T13:11:22;24.88;;;6.82;;
83630;SDS011;73593;52.134;5.426;2024-01-25T13:13:51;15.80;;;5.53;;
83630;SDS011;73593;52.134;5.426;2024-01-25T13:16:18;22.65;;;6.88;;
83630;SDS011;73593;52.134;5.426;2024-01-25T13:18:45;19.73;;;4.53;;
83630;SDS011;73593;52.134;5.426;2024-01-25T13:21:11;17.08;;;4.95;;
83630;SDS011;73593;52.134;5.426;2024-01-25T13:23:41;25.25;;;6.07;;
83630;SDS011;73593;52.134;5.426;2024-01-25T13:26:07;18.42;;;4.82;;
83630;SDS011;73593;52.134;5.426;2024-01-25T13:28:37;16.73;;;4.95;;
83630;SDS011;73593;52.134;5.426;2024-01-25T13:31:04;21.40;;;5.85;;
83630;SDS011;73593;52.134;5.426;2024-01-25T13:33:33;21.63;;;6.53;;
83630;SDS011;73593;52.134;5.426;2024-01-25T13:36:02;18.77;;;5.45;;
83630;SDS011;73593;52.134;5.426;2024-01-25T13:38:28;25.45;;;5.80;;
83630;SDS011;73593;52.134;5.426;2024-01-25T13:40:55;20.20;;;5.65;;
83630;SDS011;73593;52.134;5.426;2024-01-25T13:43:22;17.73;;;5.78;;
83630;SDS011;73593;52.134;5.426;2024-01-25T13:45:49;17.83;;;5.75;;
83630;SDS011;73593;52.134;5.426;2024-01-25T13:48:15;18.75;;;5.82;;
83630;SDS011;73593;52.134;5.426;2024-01-25T13:50:49;20.35;;;6.50;;
83630;SDS011;73593;52.134;5.426;2024-01-25T13:53:18;19.25;;;5.65;;
83630;SDS011;73593;52.134;5.426;2024-01-25T13:55:47;19.77;;;6.28;;
83630;SDS011;73593;52.134;5.426;2024-01-25T13:58:14;17.33;;;6.35;;
83630;SDS011;73593;52.134;5.426;2024-01-25T14:00:40;22.10;;;5.70;;
83630;SDS011;73593;52.134;5.426;2024-01-25T14:03:07;26.33;;;6.32;;
83630;SDS011;73593;52.134;5.426;2024-01-25T14:05:39;26.30;;;6.45;;
83630;SDS011;73593;52.134;5.426;2024-01-25T14:08:06;21.75;;;6.82;;
83630;SDS011;73593;52.134;5.426;2024-01-25T14:10:35;21.63;;;6.25;;
83630;SDS011;73593;52.134;5.426;2024-01-25T14:13:02;19.65;;;5.72;;
83630;SDS011;73593;52.134;5.426;2024-01-25T14:15:29;16.40;;;6.57;;
83630;SDS011;73593;52.134;5.426;2024-01-25T14:18:00;21.08;;;6.90;;
83630;SDS011;73593;52.134;5.426;2024-01-25T14:20:35;24.95;;;6.38;;
83630;SDS011;73593;52.134;5.426;2024-01-25T14:23:06;19.42;;;6.60;;
83630;SDS011;73593;52.134;5.426;2024-01-25T14:25:34;23.40;;;7.22;;
83630;SDS011;73593;52.134;5.426;2024-01-25T14:28:02;20.90;;;6.20;;
83630;SDS011;73593;52.134;5.426;2024-01-25T14:30:35;24.88;;;6.63;;
83630;SDS011;73593;52.134;5.426;2024-01-25T14:33:02;25.02;;;6.93;;
83630;SDS011;73593;52.134;5.426;2024-01-25T14:35:33;19.85;;;7.03;;
83630;SDS011;73593;52.134;5.426;2024-01-25T14:38:00;24.02;;;6.40;;
83630;SDS011;73593;52.134;5.426;2024-01-25T14:40:29;18.15;;;6.38;;
83630;SDS011;73593;52.134;5.426;2024-01-25T14:43:18;16.13;;;5.43;;
83630;SDS011;73593;52.134;5.426;2024-01-25T14:45:47;24.35;;;7.35;;
83630;SDS011;73593;52.134;5.426;2024-01-25T14:48:14;26.15;;;7.28;;
83630;SDS011;73593;52.134;5.426;2024-01-25T14:50:46;19.13;;;7.78;;
83630;SDS011;73593;52.134;5.426;2024-01-25T14:53:16;22.80;;;7.55;;
83630;SDS011;73593;52.134;5.426;2024-01-25T14:55:47;24.40;;;6.97;;